createdAt,value
2019-04-07T00:00:25.044Z,99033.90
2019-04-07T00:00:56.357Z,99040.36
2019-04-07T00:01:28.410Z,99040.36
2019-04-07T00:02:01.000Z,99041.37
2019-04-07T00:02:32.433Z,99040.50
2019-04-07T00:03:04.631Z,99039.52
2019-04-07T00:03:37.311Z,99037.28
2019-04-07T00:04:09.184Z,99034.59
2019-04-07T00:04:40.789Z,99038.01
2019-04-07T00:05:14.644Z,99031.91
2019-04-07T00:05:45.532Z,99037.98
2019-04-07T00:06:16.722Z,99036.02
2019-04-07T00:06:47.921Z,99032.05
2019-04-07T00:07:19.594Z,99033.69
2019-04-07T00:07:51.019Z,99036.83
2019-04-07T00:08:22.786Z,99030.31
2019-04-07T00:08:54.502Z,99034.65
2019-04-07T00:09:25.863Z,99036.56
2019-04-07T00:09:57.171Z,99043.59
2019-04-07T00:10:28.752Z,99033.67
2019-04-07T00:11:00.219Z,99038.41
2019-04-07T00:11:31.567Z,99037.61
2019-04-07T00:12:02.808Z,99035.55
2019-04-07T00:12:39.828Z,99039.11
2019-04-07T00:13:11.310Z,99038.64
2019-04-07T00:13:42.613Z,99038.70
2019-04-07T00:14:15.862Z,99039.19
2019-04-07T00:14:47.082Z,99042.32
2019-04-07T00:15:18.388Z,99040.27
2019-04-07T00:15:49.949Z,99038.21
2019-04-07T00:16:21.537Z,99033.90
2019-04-07T00:16:53.635Z,99040.41
2019-04-07T00:17:27.256Z,99041.25
2019-04-07T00:17:59.190Z,99038.62
2019-04-07T00:18:33.276Z,99041.63
2019-04-07T00:19:04.523Z,99036.42
2019-04-07T00:19:35.759Z,99034.25
2019-04-07T00:20:07.341Z,99037.52
2019-04-07T00:20:38.699Z,99032.33
2019-04-07T00:21:10.040Z,99040.61
2019-04-07T00:21:41.250Z,99035.45
2019-04-07T00:22:12.749Z,99040.14
2019-04-07T00:22:44.542Z,99039.66
2019-04-07T00:23:16.262Z,99036.56
2019-04-07T00:23:47.843Z,99038.21
2019-04-07T00:24:19.275Z,99035.20
2019-04-07T00:24:50.537Z,99034.80
2019-04-07T00:25:21.747Z,99032.66
2019-04-07T00:25:53.008Z,99040.06
2019-04-07T00:26:24.791Z,99036.21
2019-04-07T00:26:56.258Z,99033.20
2019-04-07T00:27:27.535Z,99032.80
2019-04-07T00:27:58.848Z,99035.40
2019-04-07T00:28:30.104Z,99028.55
2019-04-07T00:29:01.671Z,99032.50
2019-04-07T00:29:32.997Z,99034.22
2019-04-07T00:30:04.227Z,99032.73
2019-04-07T00:30:36.139Z,99027.80
2019-04-07T00:31:07.431Z,99032.11
2019-04-07T00:31:38.781Z,99034.71
2019-04-07T00:32:10.103Z,99026.00
2019-04-07T00:32:44.225Z,99029.85
2019-04-07T00:33:18.145Z,99030.34
2019-04-07T00:33:52.316Z,99034.80
2019-04-07T00:34:23.822Z,99034.99
2019-04-07T00:34:55.280Z,99026.20
2019-04-07T00:35:31.059Z,99030.73
2019-04-07T00:35:59.476Z,99027.68
2019-04-07T00:36:30.705Z,99027.47
2019-04-07T00:37:01.948Z,99031.84
2019-04-07T00:37:33.674Z,99024.38
2019-04-07T00:38:04.929Z,99030.25
2019-04-07T00:38:36.154Z,99028.14
2019-04-07T00:39:07.390Z,99026.30
2019-04-07T00:39:38.811Z,99026.70
2019-04-07T00:40:10.048Z,99033.20
2019-04-07T00:40:44.958Z,99029.38
2019-04-07T00:41:16.735Z,99030.34
2019-04-07T00:41:48.041Z,99031.70
2019-04-07T00:42:19.409Z,99032.66
2019-04-07T00:42:50.743Z,99031.78
2019-04-07T00:43:21.951Z,99027.80
2019-04-07T00:43:53.387Z,99024.58
2019-04-07T00:44:24.735Z,99029.09
2019-04-07T00:44:56.051Z,99020.05
2019-04-07T00:45:27.313Z,99030.11
2019-04-07T00:45:58.624Z,99026.69
2019-04-07T00:46:29.917Z,99030.66
2019-04-07T00:47:01.125Z,99031.63
2019-04-07T00:47:32.405Z,99024.00
2019-04-07T00:48:03.701Z,99022.00
2019-04-07T00:48:34.932Z,99019.48
2019-04-07T00:49:06.222Z,99025.28
2019-04-07T00:49:37.494Z,99029.24
2019-04-07T00:50:08.802Z,99021.03
2019-04-07T00:50:40.572Z,99021.09
2019-04-07T00:51:12.411Z,99022.93
2019-04-07T00:51:43.712Z,99026.48
2019-04-07T00:52:14.909Z,99024.83
2019-04-07T00:52:48.211Z,99030.06
2019-04-07T00:53:21.301Z,99026.67
2019-04-07T00:53:53.048Z,99024.50
2019-04-07T00:54:25.256Z,99024.07
2019-04-07T00:54:56.663Z,99026.70
2019-04-07T00:55:28.435Z,99024.16
2019-04-07T00:55:59.664Z,99021.20
2019-04-07T00:56:31.191Z,99024.75
2019-04-07T00:57:02.510Z,99022.91
2019-04-07T00:57:33.780Z,99023.72
2019-04-07T00:58:05.056Z,99022.36
2019-04-07T00:58:36.877Z,99023.66
2019-04-07T00:59:08.788Z,99020.11
2019-04-07T00:59:40.817Z,99022.25
2019-04-07T01:00:12.200Z,99023.91
2019-04-07T01:00:43.494Z,99016.97
2019-04-07T01:01:20.702Z,99022.12
2019-04-07T01:01:52.613Z,99009.16
2019-04-07T01:02:24.422Z,99013.91
2019-04-07T01:02:58.281Z,99014.86
2019-04-07T01:03:29.110Z,99015.73
2019-04-07T01:04:01.078Z,99024.85
2019-04-07T01:04:32.431Z,99022.25
2019-04-07T01:05:03.701Z,99024.42
2019-04-07T01:05:38.529Z,99024.85
2019-04-07T01:06:07.886Z,99020.58
2019-04-07T01:06:39.495Z,99025.67
2019-04-07T01:07:11.265Z,99019.16
2019-04-07T01:07:43.631Z,99014.80
2019-04-07T01:08:15.561Z,99017.86
2019-04-07T01:08:46.793Z,99019.98
2019-04-07T01:09:18.689Z,99015.67
2019-04-07T01:09:50.669Z,99018.67
2019-04-07T01:10:24.241Z,99016.97
2019-04-07T01:10:55.908Z,99017.37
2019-04-07T01:11:27.594Z,99017.37
2019-04-07T01:11:59.514Z,99017.37
2019-04-07T01:12:30.900Z,99016.56
2019-04-07T01:13:02.106Z,99016.21
2019-04-07T01:13:33.399Z,99018.76
2019-04-07T01:14:04.673Z,99016.45
2019-04-07T01:14:37.905Z,99013.36
2019-04-07T01:15:09.819Z,99013.83
2019-04-07T01:15:41.714Z,99014.17
2019-04-07T01:16:13.177Z,99008.86
2019-04-07T01:16:45.513Z,99010.56
2019-04-07T01:17:16.910Z,99010.16
2019-04-07T01:17:48.707Z,99009.27
2019-04-07T01:18:20.603Z,99012.70
2019-04-07T01:18:52.005Z,99013.16
2019-04-07T01:19:23.403Z,99011.86
2019-04-07T01:19:55.060Z,99007.96
2019-04-07T01:20:26.877Z,99010.56
2019-04-07T01:20:58.342Z,99013.16
2019-04-07T01:21:30.299Z,99008.86
2019-04-07T01:22:02.310Z,99005.84
2019-04-07T01:22:34.605Z,99008.02
2019-04-07T01:23:05.927Z,99010.97
2019-04-07T01:23:37.903Z,99006.66
2019-04-07T01:24:09.824Z,99001.92
2019-04-07T01:24:41.101Z,99006.17
2019-04-07T01:25:12.395Z,99006.60
2019-04-07T01:25:44.597Z,99007.47
2019-04-07T01:26:16.338Z,99006.95
2019-04-07T01:26:48.144Z,99006.87
2019-04-07T01:27:21.738Z,99002.09
2019-04-07T01:27:52.998Z,99002.02
2019-04-07T01:28:24.249Z,99002.48
2019-04-07T01:28:55.525Z,99001.66
2019-04-07T01:29:26.773Z,99002.48
2019-04-07T01:29:58.099Z,99003.78
2019-04-07T01:30:33.714Z,99003.31
2019-04-07T01:31:02.408Z,98999.00
2019-04-07T01:31:34.126Z,99002.48
2019-04-07T01:32:06.028Z,99004.16
2019-04-07T01:32:38.778Z,99000.30
2019-04-07T01:33:10.390Z,98998.05
2019-04-07T01:33:41.668Z,99001.20
2019-04-07T01:34:13.468Z,99004.67
2019-04-07T01:34:47.598Z,99002.50
2019-04-07T01:35:18.850Z,98998.66
2019-04-07T01:35:50.414Z,99003.45
2019-04-07T01:36:22.833Z,99002.16
2019-04-07T01:36:54.483Z,98995.64
2019-04-07T01:37:26.249Z,98999.55
2019-04-07T01:37:58.249Z,98999.14
2019-04-07T01:38:30.664Z,99000.30
2019-04-07T01:39:01.976Z,98994.49
2019-04-07T01:39:33.718Z,98995.66
2019-04-07T01:40:05.678Z,98997.36
2019-04-07T01:40:37.054Z,98995.19
2019-04-07T01:41:08.342Z,98990.85
2019-04-07T01:41:41.702Z,98992.16
2019-04-07T01:42:15.033Z,98990.45
2019-04-07T01:42:46.245Z,98995.66
2019-04-07T01:43:17.550Z,98992.59
2019-04-07T01:43:49.372Z,98988.73
2019-04-07T01:44:20.695Z,98991.83
2019-04-07T01:44:51.948Z,98992.78
2019-04-07T01:45:23.776Z,98992.06
2019-04-07T01:45:55.102Z,98991.31
2019-04-07T01:46:26.460Z,98987.84
2019-04-07T01:46:58.143Z,98985.23
2019-04-07T01:47:29.467Z,98989.66
2019-04-07T01:48:00.770Z,98992.75
2019-04-07T01:48:32.072Z,98988.84
2019-04-07T01:49:03.354Z,98990.15
2019-04-07T01:49:34.803Z,98989.66
2019-04-07T01:50:06.567Z,98983.94
2019-04-07T01:50:37.744Z,98984.69
2019-04-07T01:51:09.072Z,98988.88
2019-04-07T01:51:40.948Z,98988.05
2019-04-07T01:52:12.955Z,98982.90
2019-04-07T01:52:46.012Z,98981.59
2019-04-07T01:53:17.949Z,98982.84
2019-04-07T01:53:49.805Z,98979.89
2019-04-07T01:54:21.741Z,98979.05
2019-04-07T01:54:53.662Z,98979.55
2019-04-07T01:55:24.938Z,98976.45
2019-04-07T01:55:56.429Z,98976.45
2019-04-07T01:56:27.818Z,98979.95
2019-04-07T01:57:00.180Z,98979.14
2019-04-07T01:57:32.264Z,98973.64
2019-04-07T01:58:04.027Z,98973.72
2019-04-07T01:58:35.943Z,98975.02
2019-04-07T01:59:11.257Z,98977.80
2019-04-07T01:59:43.308Z,98977.05
2019-04-07T02:00:17.388Z,98971.92
2019-04-07T02:00:48.619Z,98976.72
2019-04-07T02:01:19.842Z,98973.75
2019-04-07T02:01:51.703Z,98967.32
2019-04-07T02:02:23.610Z,98973.02
2019-04-07T02:02:55.507Z,98970.88
2019-04-07T02:03:27.567Z,98978.33
2019-04-07T02:03:58.963Z,98975.73
2019-04-07T02:04:30.175Z,98968.33
2019-04-07T02:05:01.492Z,98965.27
2019-04-07T02:05:32.907Z,98967.81
2019-04-07T02:06:05.720Z,98969.58
2019-04-07T02:06:37.388Z,98967.45
2019-04-07T02:07:08.595Z,98966.22
2019-04-07T02:07:40.074Z,98965.03
2019-04-07T02:08:12.438Z,98965.11
2019-04-07T02:08:43.729Z,98966.47
2019-04-07T02:09:15.025Z,98969.50
2019-04-07T02:09:46.885Z,98965.59
2019-04-07T02:10:18.839Z,98972.56
2019-04-07T02:10:50.650Z,98966.89
2019-04-07T02:11:22.077Z,98967.30
2019-04-07T02:11:53.839Z,98963.86
2019-04-07T02:12:25.717Z,98963.86
2019-04-07T02:12:57.773Z,98957.84
2019-04-07T02:13:29.134Z,98966.89
2019-04-07T02:14:07.059Z,98964.41
2019-04-07T02:14:33.354Z,98963.94
2019-04-07T02:15:04.634Z,98966.06
2019-04-07T02:15:35.970Z,98962.56
2019-04-07T02:16:07.218Z,98969.14
2019-04-07T02:16:38.461Z,98963.65
2019-04-07T02:17:09.806Z,98968.44
2019-04-07T02:17:41.595Z,98962.83
2019-04-07T02:18:13.536Z,98966.30
2019-04-07T02:18:45.401Z,98965.06
2019-04-07T02:19:17.415Z,98961.10
2019-04-07T02:19:49.108Z,98964.95
2019-04-07T02:20:21.115Z,98961.94
2019-04-07T02:20:54.148Z,98962.00
2019-04-07T02:21:25.467Z,98963.77
2019-04-07T02:21:56.662Z,98958.58
2019-04-07T02:22:27.953Z,98959.51
2019-04-07T02:23:00.797Z,98965.20
2019-04-07T02:23:32.616Z,98960.89
2019-04-07T02:24:03.907Z,98959.64
2019-04-07T02:24:35.651Z,98954.52
2019-04-07T02:25:09.899Z,98952.38
2019-04-07T02:25:41.590Z,98957.53
2019-04-07T02:26:12.797Z,98955.80
2019-04-07T02:26:44.441Z,98960.59
2019-04-07T02:27:16.355Z,98956.69
2019-04-07T02:27:47.981Z,98953.76
2019-04-07T02:28:21.791Z,98950.73
2019-04-07T02:28:52.614Z,98954.57
2019-04-07T02:29:24.626Z,98953.33
2019-04-07T02:29:55.909Z,98958.88
2019-04-07T02:30:27.206Z,98953.22
2019-04-07T02:30:58.989Z,98951.48
2019-04-07T02:31:30.342Z,98956.69
2019-04-07T02:32:01.705Z,98954.98
2019-04-07T02:32:32.937Z,98953.62
2019-04-07T02:33:04.408Z,98958.42
2019-04-07T02:33:35.689Z,98951.48
2019-04-07T02:34:07.147Z,98950.59
2019-04-07T02:34:38.417Z,98954.38
2019-04-07T02:35:09.729Z,98948.34
2019-04-07T02:35:41.878Z,98952.67
2019-04-07T02:36:22.829Z,98953.09
2019-04-07T02:36:48.446Z,98951.30
2019-04-07T02:37:20.608Z,98946.58
2019-04-07T02:38:00.672Z,98954.73
2019-04-07T02:38:31.874Z,98948.99
2019-04-07T02:39:11.140Z,98949.81
2019-04-07T02:39:45.064Z,98948.39
2019-04-07T02:40:15.461Z,98946.61
2019-04-07T02:40:47.301Z,98947.02
2019-04-07T02:41:18.583Z,98953.89
2019-04-07T02:41:52.092Z,98948.20
2019-04-07T02:42:23.305Z,98948.61
2019-04-07T02:42:55.620Z,98945.11
2019-04-07T02:43:27.424Z,98949.80
2019-04-07T02:43:59.704Z,98949.80
2019-04-07T02:44:31.667Z,98946.77
2019-04-07T02:45:02.870Z,98945.41
2019-04-07T02:45:34.586Z,98948.00
2019-04-07T02:46:05.939Z,98948.84
2019-04-07T02:46:37.184Z,98954.05
2019-04-07T02:47:08.667Z,98949.71
2019-04-07T02:47:41.877Z,98950.55
2019-04-07T02:48:15.511Z,98951.02
2019-04-07T02:48:46.876Z,98948.06
2019-04-07T02:49:19.954Z,98943.64
2019-04-07T02:49:51.754Z,98946.30
2019-04-07T02:50:24.119Z,98952.02
2019-04-07T02:50:55.544Z,98947.72
2019-04-07T02:51:26.868Z,98950.74
2019-04-07T02:51:58.129Z,98948.12
2019-04-07T02:52:30.552Z,98949.42
2019-04-07T02:53:02.838Z,98946.47
2019-04-07T02:53:34.920Z,98947.25
2019-04-07T02:54:06.212Z,98954.56
2019-04-07T02:54:40.199Z,98948.12
2019-04-07T02:55:11.435Z,98950.31
2019-04-07T02:55:42.729Z,98946.00
2019-04-07T02:56:13.973Z,98949.80
2019-04-07T02:56:47.318Z,98950.14
2019-04-07T02:57:18.973Z,98955.75
2019-04-07T02:57:50.727Z,98954.51
2019-04-07T02:58:22.816Z,98952.26
2019-04-07T02:58:54.945Z,98947.00
2019-04-07T02:59:27.258Z,98951.25
2019-04-07T02:59:58.486Z,98953.02
2019-04-07T03:00:29.796Z,98955.61
2019-04-07T03:01:01.916Z,98953.42
2019-04-07T03:01:33.399Z,98953.91
2019-04-07T03:02:04.795Z,98950.06
2019-04-07T03:02:36.073Z,98948.70
2019-04-07T03:03:07.273Z,98948.64
2019-04-07T03:03:39.457Z,98950.00
2019-04-07T03:04:11.702Z,98946.63
2019-04-07T03:04:44.309Z,98950.14
2019-04-07T03:05:15.819Z,98945.89
2019-04-07T03:05:47.623Z,98943.81
2019-04-07T03:06:34.847Z,98950.31
2019-04-07T03:06:53.482Z,98949.80
2019-04-07T03:07:25.091Z,98949.80
2019-04-07T03:07:59.576Z,98948.95
2019-04-07T03:08:30.860Z,98950.20
2019-04-07T03:09:02.202Z,98945.00
2019-04-07T03:09:34.750Z,98950.14
2019-04-07T03:10:06.163Z,98947.52
2019-04-07T03:10:38.488Z,98949.25
2019-04-07T03:11:09.816Z,98945.33
2019-04-07T03:11:44.591Z,98943.97
2019-04-07T03:12:16.003Z,98947.05
2019-04-07T03:12:53.104Z,98949.23
2019-04-07T03:13:24.543Z,98947.00
2019-04-07T03:13:58.910Z,98949.95
2019-04-07T03:14:30.354Z,98946.42
2019-04-07T03:15:02.810Z,98942.06
2019-04-07T03:15:34.513Z,98947.73
2019-04-07T03:16:05.847Z,98947.73
2019-04-07T03:16:37.465Z,98946.02
2019-04-07T03:17:08.738Z,98947.34
2019-04-07T03:17:43.689Z,98948.70
2019-04-07T03:18:14.455Z,98944.80
2019-04-07T03:18:46.319Z,98943.07
2019-04-07T03:19:17.590Z,98946.02
2019-04-07T03:19:48.809Z,98946.91
2019-04-07T03:20:20.043Z,98946.91
2019-04-07T03:20:54.285Z,98944.25
2019-04-07T03:21:25.482Z,98945.12
2019-04-07T03:21:57.763Z,98952.00
2019-04-07T03:22:29.250Z,98951.52
2019-04-07T03:23:00.518Z,98948.02
2019-04-07T03:23:35.080Z,98949.26
2019-04-07T03:24:09.423Z,98949.37
2019-04-07T03:24:40.710Z,98947.61
2019-04-07T03:25:16.192Z,98947.61
2019-04-07T03:25:48.495Z,98946.25
2019-04-07T03:26:21.192Z,98947.49
2019-04-07T03:26:53.364Z,98947.49
2019-04-07T03:27:24.734Z,98941.86
2019-04-07T03:27:59.137Z,98942.27
2019-04-07T03:28:30.635Z,98944.41
2019-04-07T03:29:01.956Z,98945.30
2019-04-07T03:29:33.403Z,98944.34
2019-04-07T03:30:06.041Z,98942.67
2019-04-07T03:30:41.754Z,98944.34
2019-04-07T03:31:14.760Z,98944.81
2019-04-07T03:31:49.100Z,98945.27
2019-04-07T03:32:21.756Z,98942.15
2019-04-07T03:32:54.414Z,98944.32
2019-04-07T03:33:26.096Z,98942.61
2019-04-07T03:34:01.027Z,98946.17
2019-04-07T03:34:33.607Z,98941.39
2019-04-07T03:35:09.680Z,98945.36
2019-04-07T03:35:45.201Z,98935.41
2019-04-07T03:36:20.074Z,98940.21
2019-04-07T03:37:14.938Z,98945.84
2019-04-07T03:37:34.323Z,98942.41
2019-04-07T03:37:55.008Z,98941.59
2019-04-07T03:38:27.303Z,98944.20
2019-04-07T03:38:59.090Z,98940.70
2019-04-07T03:39:30.333Z,98942.47
2019-04-07T03:40:02.576Z,98945.01
2019-04-07T03:40:34.070Z,98941.11
2019-04-07T03:41:05.527Z,98942.41
2019-04-07T03:41:37.423Z,98944.60
2019-04-07T03:42:12.447Z,98947.61
2019-04-07T03:42:51.189Z,98945.91
2019-04-07T03:43:22.498Z,98944.20
2019-04-07T03:43:53.970Z,98943.83
2019-04-07T03:44:27.656Z,98944.31
2019-04-07T03:44:59.031Z,98943.77
2019-04-07T03:45:30.540Z,98942.52
2019-04-07T03:46:03.783Z,98943.30
2019-04-07T03:46:35.089Z,98947.14
2019-04-07T03:47:07.180Z,98938.50
2019-04-07T03:47:39.339Z,98941.94
2019-04-07T03:48:10.776Z,98943.22
2019-04-07T03:48:42.001Z,98938.02
2019-04-07T03:49:13.467Z,98944.52
2019-04-07T03:49:46.482Z,98941.39
2019-04-07T03:50:18.626Z,98942.34
2019-04-07T03:50:50.746Z,98938.85
2019-04-07T03:51:22.427Z,98939.80
2019-04-07T03:51:55.870Z,98942.52
2019-04-07T03:52:27.321Z,98939.86
2019-04-07T03:53:03.200Z,98937.32
2019-04-07T03:53:32.356Z,98937.32
2019-04-07T03:54:03.640Z,98939.52
2019-04-07T03:54:35.520Z,98939.54
2019-04-07T03:55:08.672Z,98940.81
2019-04-07T03:55:40.873Z,98940.35
2019-04-07T03:56:12.275Z,98940.70
2019-04-07T03:56:43.640Z,98938.16
2019-04-07T03:57:15.144Z,98940.76
2019-04-07T03:57:47.806Z,98940.30
2019-04-07T03:58:20.855Z,98944.25
2019-04-07T03:58:55.776Z,98938.16
2019-04-07T03:59:27.144Z,98940.76
2019-04-07T03:59:59.541Z,98940.70
2019-04-07T04:00:31.747Z,98939.00
2019-04-07T04:01:03.632Z,98940.70
2019-04-07T04:01:35.666Z,98936.80
2019-04-07T04:02:07.969Z,98944.60
2019-04-07T04:02:39.354Z,98941.59
2019-04-07T04:03:10.975Z,98942.00
2019-04-07T04:03:42.269Z,98935.09
2019-04-07T04:04:13.796Z,98938.09
2019-04-07T04:04:45.736Z,98936.80
2019-04-07T04:05:16.998Z,98939.92
2019-04-07T04:05:51.261Z,98937.75
2019-04-07T04:06:21.544Z,98939.05
2019-04-07T04:06:53.405Z,98936.45
2019-04-07T04:07:31.497Z,98936.94
2019-04-07T04:07:57.978Z,98932.69
2019-04-07T04:08:29.262Z,98935.75
2019-04-07T04:09:00.560Z,98935.34
2019-04-07T04:09:38.104Z,98941.91
2019-04-07T04:10:06.762Z,98938.36
2019-04-07T04:10:38.521Z,98936.22
2019-04-07T04:11:09.954Z,98940.13
2019-04-07T04:11:41.306Z,98936.22
2019-04-07T04:12:12.601Z,98936.59
2019-04-07T04:12:43.871Z,98934.39
2019-04-07T04:13:16.536Z,98941.42
2019-04-07T04:13:51.033Z,98939.19
2019-04-07T04:14:22.342Z,98942.61
2019-04-07T04:14:53.603Z,98945.55
2019-04-07T04:15:24.911Z,98942.00
2019-04-07T04:15:56.679Z,98945.84
2019-04-07T04:16:29.065Z,98943.59
2019-04-07T04:17:00.337Z,98944.87
2019-04-07T04:17:33.083Z,98947.35
2019-04-07T04:18:05.368Z,98944.75
2019-04-07T04:18:37.547Z,98943.45
2019-04-07T04:19:11.350Z,98945.16
2019-04-07T04:19:42.834Z,98946.92
2019-04-07T04:20:14.756Z,98937.35
2019-04-07T04:20:46.450Z,98941.59
2019-04-07T04:21:17.852Z,98942.01
2019-04-07T04:21:49.221Z,98943.71
2019-04-07T04:22:21.054Z,98947.21
2019-04-07T04:22:52.735Z,98938.51
2019-04-07T04:23:24.306Z,98944.14
2019-04-07T04:23:55.646Z,98941.52
2019-04-07T04:24:28.548Z,98947.15
2019-04-07T04:25:02.925Z,98944.06
2019-04-07T04:25:37.481Z,98949.67
2019-04-07T04:26:09.618Z,98945.77
2019-04-07T04:26:41.989Z,98944.48
2019-04-07T04:27:14.668Z,98947.50
2019-04-07T04:27:46.044Z,98947.09
2019-04-07T04:28:18.038Z,98950.97
2019-04-07T04:28:49.271Z,98947.97
2019-04-07T04:29:20.670Z,98955.25
2019-04-07T04:29:55.285Z,98951.32
2019-04-07T04:30:27.661Z,98952.97
2019-04-07T04:30:59.877Z,98948.11
2019-04-07T04:31:31.168Z,98955.02
2019-04-07T04:32:03.092Z,98953.25
2019-04-07T04:32:34.416Z,98947.58
2019-04-07T04:33:06.272Z,98953.16
2019-04-07T04:33:37.846Z,98948.31
2019-04-07T04:34:09.899Z,98948.68
2019-04-07T04:34:41.247Z,98950.79
2019-04-07T04:35:12.439Z,98951.20
2019-04-07T04:35:44.138Z,98946.05
2019-04-07T04:36:15.584Z,98948.59
2019-04-07T04:36:47.874Z,98947.70
2019-04-07T04:37:34.733Z,98948.65
2019-04-07T04:37:55.490Z,98943.45
2019-04-07T04:38:29.781Z,98944.56
2019-04-07T04:39:00.552Z,98944.88
2019-04-07T04:39:31.977Z,98947.36
2019-04-07T04:40:03.247Z,98949.91
2019-04-07T04:40:34.683Z,98943.45
2019-04-07T04:41:06.880Z,98941.87
2019-04-07T04:41:43.377Z,98950.09
2019-04-07T04:42:14.274Z,98953.12
2019-04-07T04:42:48.697Z,98947.58
2019-04-07T04:43:24.244Z,98945.38
2019-04-07T04:43:55.259Z,98948.94
2019-04-07T04:44:26.647Z,98949.40
2019-04-07T04:44:58.853Z,98945.84
2019-04-07T04:45:30.254Z,98948.45
2019-04-07T04:46:01.595Z,98948.04
2019-04-07T04:46:34.858Z,98951.95
2019-04-07T04:47:06.118Z,98948.81
2019-04-07T04:47:40.630Z,98950.50
2019-04-07T04:48:13.198Z,98949.56
2019-04-07T04:48:47.322Z,98949.97
2019-04-07T04:49:19.015Z,98949.56
2019-04-07T04:49:54.046Z,98952.52
2019-04-07T04:50:25.851Z,98949.87
2019-04-07T04:50:58.047Z,98953.33
2019-04-07T04:51:35.301Z,98954.16
2019-04-07T04:52:03.907Z,98958.03
2019-04-07T04:52:36.646Z,98954.63
2019-04-07T04:53:09.334Z,98954.69
2019-04-07T04:53:40.923Z,98959.02
2019-04-07T04:54:14.414Z,98953.44
2019-04-07T04:54:45.134Z,98954.28
2019-04-07T04:55:16.647Z,98956.82
2019-04-07T04:55:51.496Z,98960.30
2019-04-07T04:56:22.921Z,98955.46
2019-04-07T04:56:54.272Z,98956.27
2019-04-07T04:57:25.591Z,98957.98
2019-04-07T04:57:57.771Z,98961.33
2019-04-07T04:58:32.297Z,98955.25
2019-04-07T04:59:11.394Z,98956.95
2019-04-07T04:59:42.709Z,98958.66
2019-04-07T05:00:13.969Z,98957.30
2019-04-07T05:00:45.437Z,98949.37
2019-04-07T05:01:17.487Z,98952.44
2019-04-07T05:01:48.864Z,98959.30
2019-04-07T05:02:20.203Z,98955.88
2019-04-07T05:02:51.550Z,98948.91
2019-04-07T05:03:22.840Z,98954.48
2019-04-07T05:03:55.882Z,98954.36
2019-04-07T05:04:27.200Z,98955.05
2019-04-07T05:04:59.287Z,98957.16
2019-04-07T05:05:30.763Z,98949.77
2019-04-07T05:06:02.372Z,98955.86
2019-04-07T05:06:36.942Z,98950.45
2019-04-07T05:07:08.323Z,98959.17
2019-04-07T05:07:49.827Z,98957.87
2019-04-07T05:08:12.880Z,98952.66
2019-04-07T05:08:44.414Z,98953.34
2019-04-07T05:09:15.773Z,98955.45
2019-04-07T05:09:51.767Z,98953.66
2019-04-07T05:10:20.047Z,98955.33
2019-04-07T05:10:51.864Z,98953.03
2019-04-07T05:11:23.900Z,98950.83
2019-04-07T05:11:55.314Z,98951.61
2019-04-07T05:12:26.583Z,98951.20
2019-04-07T05:12:58.176Z,98949.89
2019-04-07T05:13:31.579Z,98955.82
2019-04-07T05:14:03.728Z,98954.45
2019-04-07T05:14:35.087Z,98947.48
2019-04-07T05:15:06.382Z,98957.41
2019-04-07T05:15:37.859Z,98953.99
2019-04-07T05:16:10.607Z,98950.61
2019-04-07T05:16:42.499Z,98951.95
2019-04-07T05:17:13.934Z,98951.95
2019-04-07T05:17:45.181Z,98953.03
2019-04-07T05:18:16.661Z,98950.76
2019-04-07T05:18:48.176Z,98949.36
2019-04-07T05:19:19.468Z,98953.27
2019-04-07T05:19:51.163Z,98951.07
2019-04-07T05:20:22.938Z,98949.23
2019-04-07T05:20:54.309Z,98949.64
2019-04-07T05:21:26.151Z,98950.11
2019-04-07T05:21:58.173Z,98953.70
2019-04-07T05:22:33.254Z,98944.24
2019-04-07T05:23:05.230Z,98949.05
2019-04-07T05:23:36.553Z,98950.33
2019-04-07T05:24:07.757Z,98951.29
2019-04-07T05:24:38.996Z,98951.66
2019-04-07T05:25:10.197Z,98951.66
2019-04-07T05:25:41.401Z,98952.97
2019-04-07T05:26:12.606Z,98951.23
2019-04-07T05:26:43.816Z,98949.98
2019-04-07T05:27:15.033Z,98950.95
2019-04-07T05:27:46.243Z,98952.59
2019-04-07T05:28:17.529Z,98955.63
2019-04-07T05:28:49.197Z,98957.80
2019-04-07T05:29:20.418Z,98961.31
2019-04-07T05:29:52.071Z,98963.64
2019-04-07T05:30:23.488Z,98955.98
2019-04-07T05:30:54.721Z,98962.43
2019-04-07T05:31:25.953Z,98954.52
2019-04-07T05:31:57.157Z,98960.50
2019-04-07T05:32:28.708Z,98958.23
2019-04-07T05:32:59.866Z,98961.19
2019-04-07T05:33:31.126Z,98956.78
2019-04-07T05:34:02.847Z,98955.88
2019-04-07T05:34:34.555Z,98954.67
2019-04-07T05:35:06.046Z,98953.84
2019-04-07T05:35:37.937Z,98954.73
2019-04-07T05:36:09.211Z,98957.00
2019-04-07T05:36:40.812Z,98947.70
2019-04-07T05:37:12.009Z,98952.56
2019-04-07T05:37:43.426Z,98954.77
2019-04-07T05:38:14.720Z,98950.11
2019-04-07T05:38:46.660Z,98946.20
2019-04-07T05:39:17.936Z,98945.66
2019-04-07T05:39:49.182Z,98951.33
2019-04-07T05:40:20.402Z,98953.38
2019-04-07T05:40:52.131Z,98953.44
2019-04-07T05:41:23.387Z,98951.83
2019-04-07T05:41:54.771Z,98944.13
2019-04-07T05:42:25.976Z,98952.84
2019-04-07T05:42:57.184Z,98953.12
2019-04-07T05:43:28.402Z,98954.34
2019-04-07T05:43:59.627Z,98953.80
2019-04-07T05:44:30.848Z,98957.16
2019-04-07T05:45:02.237Z,98957.80
2019-04-07T05:45:35.522Z,98957.83
2019-04-07T05:46:08.055Z,98957.50
2019-04-07T05:46:42.306Z,98955.82
2019-04-07T05:47:13.844Z,98956.72
2019-04-07T05:47:48.735Z,98957.96
2019-04-07T05:48:20.128Z,98955.70
2019-04-07T05:48:52.729Z,98962.61
2019-04-07T05:49:24.217Z,98958.23
2019-04-07T05:49:58.757Z,98960.01
2019-04-07T05:50:28.851Z,98959.45
2019-04-07T05:51:01.106Z,98961.92
2019-04-07T05:51:32.741Z,98961.37
2019-04-07T05:52:05.672Z,98963.41
2019-04-07T05:52:39.682Z,98961.61
2019-04-07T05:53:13.459Z,98965.45
2019-04-07T05:53:46.468Z,98958.78
2019-04-07T05:54:17.372Z,98961.76
2019-04-07T05:54:49.970Z,98963.93
2019-04-07T05:55:24.008Z,98961.89
2019-04-07T05:55:55.557Z,98965.05
2019-04-07T05:56:28.422Z,98963.01
2019-04-07T05:57:01.546Z,98964.72
2019-04-07T05:57:34.849Z,98961.98
2019-04-07T05:58:08.334Z,98963.19
2019-04-07T05:58:41.097Z,98966.13
2019-04-07T05:59:13.846Z,98964.20
2019-04-07T05:59:45.977Z,98969.25
2019-04-07T06:00:17.245Z,98965.78
2019-04-07T06:00:49.953Z,98964.87
2019-04-07T06:01:23.385Z,98963.91
2019-04-07T06:01:59.319Z,98962.61
2019-04-07T06:02:29.259Z,98963.01
2019-04-07T06:03:04.545Z,98966.48
2019-04-07T06:03:33.110Z,98960.30
2019-04-07T06:04:04.328Z,98960.34
2019-04-07T06:04:36.089Z,98959.56
2019-04-07T06:05:07.347Z,98963.08
2019-04-07T06:05:38.581Z,98960.06
2019-04-07T06:06:10.493Z,98961.27
2019-04-07T06:06:42.069Z,98956.49
2019-04-07T06:07:13.710Z,98961.38
2019-04-07T06:07:45.829Z,98955.31
2019-04-07T06:08:25.800Z,98950.53
2019-04-07T06:08:50.649Z,98956.31
2019-04-07T06:09:21.983Z,98959.39
2019-04-07T06:09:53.527Z,98956.72
2019-04-07T06:10:28.509Z,98952.30
2019-04-07T06:11:01.320Z,98955.41
2019-04-07T06:11:33.034Z,98954.98
2019-04-07T06:12:08.477Z,98958.02
2019-04-07T06:12:39.285Z,98957.95
2019-04-07T06:13:13.191Z,98954.35
2019-04-07T06:13:44.627Z,98960.64
2019-04-07T06:14:16.696Z,98959.20
2019-04-07T06:14:48.345Z,98961.65
2019-04-07T06:15:22.162Z,98960.17
2019-04-07T06:15:53.215Z,98961.81
2019-04-07T06:16:24.681Z,98960.55